createdAt,value
2022-08-21T00:00:09.225Z,18.86
2022-08-21T00:01:09.205Z,18.89
2022-08-21T00:02:09.247Z,18.89
2022-08-21T00:03:09.210Z,18.85
2022-08-21T00:04:09.178Z,18.81
2022-08-21T00:05:09.147Z,18.83
2022-08-21T00:06:09.149Z,18.82
2022-08-21T00:07:10.133Z,18.83
2022-08-21T00:08:09.156Z,18.89
2022-08-21T00:09:09.128Z,18.96
2022-08-21T00:10:09.110Z,18.91
2022-08-21T00:11:09.088Z,18.85
2022-08-21T00:12:09.069Z,18.88
2022-08-21T00:13:09.080Z,18.85
2022-08-21T00:14:09.051Z,18.86
2022-08-21T00:15:09.040Z,18.91
2022-08-21T00:16:09.030Z,18.86
2022-08-21T00:17:09.018Z,18.83
2022-08-21T00:18:09.021Z,18.82
2022-08-21T00:19:08.991Z,18.83
2022-08-21T00:20:08.988Z,18.78
2022-08-21T00:21:08.983Z,18.82
2022-08-21T00:22:08.967Z,18.89
2022-08-21T00:23:08.973Z,18.89
2022-08-21T00:24:08.941Z,18.94
2022-08-21T00:25:08.934Z,18.96
2022-08-21T00:26:08.921Z,18.97
2022-08-21T00:27:08.913Z,18.98
2022-08-21T00:28:08.941Z,19.01
2022-08-21T00:29:08.894Z,18.96
2022-08-21T00:30:08.874Z,19.00
2022-08-21T00:31:08.871Z,18.89
2022-08-21T00:32:08.845Z,18.82
2022-08-21T00:33:08.840Z,18.88
2022-08-21T00:34:08.874Z,18.82
2022-08-21T00:35:08.804Z,18.75
2022-08-21T00:36:08.804Z,18.70
2022-08-21T00:37:08.805Z,18.70
2022-08-21T00:38:08.780Z,18.74
2022-08-21T00:39:08.776Z,18.79
2022-08-21T00:40:08.817Z,18.70
2022-08-21T00:41:21.155Z,18.68
2022-08-21T00:42:09.758Z,18.67
2022-08-21T00:43:08.746Z,18.63
2022-08-21T00:44:08.748Z,18.58
2022-08-21T00:45:08.718Z,18.60
2022-08-21T00:46:08.699Z,18.67
2022-08-21T00:47:08.688Z,18.78
2022-08-21T00:48:08.680Z,18.83
2022-08-21T00:49:08.679Z,18.78
2022-08-21T00:50:08.676Z,18.75
2022-08-21T00:51:09.641Z,18.75
2022-08-21T00:52:08.629Z,18.85
2022-08-21T00:53:08.631Z,18.88
2022-08-21T00:54:09.945Z,18.89
2022-08-21T00:55:09.623Z,18.91
2022-08-21T00:56:08.591Z,18.93
2022-08-21T00:57:08.600Z,18.93
2022-08-21T00:58:08.586Z,18.91
2022-08-21T00:59:08.556Z,18.91
2022-08-21T01:00:08.605Z,18.91
2022-08-21T01:01:08.889Z,18.89
2022-08-21T01:02:08.526Z,18.89
2022-08-21T01:03:09.125Z,18.89
2022-08-21T01:04:08.494Z,18.88
2022-08-21T01:05:08.524Z,18.89
2022-08-21T01:06:08.476Z,18.86
2022-08-21T01:07:08.480Z,18.85
2022-08-21T01:08:08.456Z,18.85
2022-08-21T01:09:08.443Z,18.82
2022-08-21T01:10:08.438Z,18.81
2022-08-21T01:11:09.446Z,18.81
2022-08-21T01:12:08.416Z,18.81
2022-08-21T01:13:08.399Z,18.81
2022-08-21T01:14:08.396Z,18.78
2022-08-21T01:15:08.365Z,18.78
2022-08-21T01:16:08.358Z,18.76
2022-08-21T01:17:08.369Z,18.75
2022-08-21T01:18:08.335Z,18.74
2022-08-21T01:19:08.343Z,18.74
2022-08-21T01:20:08.318Z,18.71
2022-08-21T01:21:08.307Z,18.74
2022-08-21T01:22:08.349Z,18.71
2022-08-21T01:23:08.287Z,18.71
2022-08-21T01:24:08.276Z,18.71
2022-08-21T01:25:08.259Z,18.58
2022-08-21T01:26:08.247Z,18.64
2022-08-21T01:27:08.268Z,18.67
2022-08-21T01:28:08.230Z,18.63
2022-08-21T01:29:08.216Z,18.58
2022-08-21T01:30:08.209Z,18.61
2022-08-21T01:31:08.201Z,18.64
2022-08-21T01:32:08.192Z,18.54
2022-08-21T01:33:08.245Z,18.49
2022-08-21T01:34:08.162Z,18.48
2022-08-21T01:35:08.153Z,18.45
2022-08-21T01:36:08.135Z,18.39
2022-08-21T01:37:08.134Z,18.36
2022-08-21T01:38:08.115Z,18.31
2022-08-21T01:39:08.124Z,18.30
2022-08-21T01:40:08.203Z,18.28
2022-08-21T01:41:08.082Z,18.24
2022-08-21T01:42:08.099Z,18.23
2022-08-21T01:43:08.065Z,18.24
2022-08-21T01:44:08.068Z,18.27
2022-08-21T01:45:08.047Z,18.23
2022-08-21T01:46:08.046Z,18.18
2022-08-21T01:47:08.027Z,18.17
2022-08-21T01:48:08.017Z,18.15
2022-08-21T01:49:08.047Z,18.17
2022-08-21T01:50:07.985Z,18.17
2022-08-21T01:51:07.983Z,18.20
2022-08-21T01:52:09.617Z,18.21
2022-08-21T01:53:07.967Z,18.21
2022-08-21T01:54:07.961Z,18.24
2022-08-21T01:55:07.929Z,18.27
2022-08-21T01:56:12.240Z,18.27
2022-08-21T01:57:08.911Z,18.28
2022-08-21T01:58:07.900Z,18.24
2022-08-21T01:59:07.969Z,18.24
2022-08-21T02:00:07.880Z,18.26
2022-08-21T02:01:07.966Z,18.28
2022-08-21T02:02:07.863Z,18.28
2022-08-21T02:03:07.840Z,18.33
2022-08-21T02:04:07.881Z,18.33
2022-08-21T02:05:07.826Z,18.36
2022-08-21T02:06:07.860Z,18.39
2022-08-21T02:07:08.566Z,18.36
2022-08-21T02:08:07.805Z,18.34
2022-08-21T02:09:07.787Z,18.34
2022-08-21T02:10:07.784Z,18.36
2022-08-21T02:11:07.791Z,18.30
2022-08-21T02:12:07.744Z,18.30
2022-08-21T02:13:07.746Z,18.30
2022-08-21T02:14:08.713Z,18.34
2022-08-21T02:15:07.752Z,18.31
2022-08-21T02:16:07.698Z,18.33
2022-08-21T02:17:08.944Z,18.38
2022-08-21T02:18:07.673Z,18.42
2022-08-21T02:19:07.784Z,18.48
2022-08-21T02:20:07.688Z,18.48
2022-08-21T02:21:07.644Z,18.41
2022-08-21T02:22:07.638Z,18.39
2022-08-21T02:23:07.627Z,18.39
2022-08-21T02:24:07.599Z,18.41
2022-08-21T02:25:07.635Z,18.41
2022-08-21T02:26:07.598Z,18.38
2022-08-21T02:27:07.568Z,18.36
2022-08-21T02:28:07.589Z,18.36
2022-08-21T02:29:07.566Z,18.41
2022-08-21T02:30:07.590Z,18.43
2022-08-21T02:31:07.540Z,18.46
2022-08-21T02:32:07.530Z,18.41
2022-08-21T02:33:07.523Z,18.42
2022-08-21T02:34:07.521Z,18.43
2022-08-21T02:35:07.520Z,18.36
2022-08-21T02:36:07.483Z,18.36
2022-08-21T02:37:07.480Z,18.39
2022-08-21T02:38:07.455Z,18.36
2022-08-21T02:39:08.472Z,18.36
2022-08-21T02:40:07.476Z,18.38
2022-08-21T02:41:07.430Z,18.36
2022-08-21T02:42:07.423Z,18.36
2022-08-21T02:43:07.392Z,18.36
2022-08-21T02:44:07.393Z,18.31
2022-08-21T02:45:07.364Z,18.33
2022-08-21T02:46:07.415Z,18.33
2022-08-21T02:47:07.362Z,18.33
2022-08-21T02:48:07.350Z,18.30
2022-08-21T02:49:07.344Z,18.30
2022-08-21T02:50:07.334Z,18.30
2022-08-21T02:51:07.322Z,18.28
2022-08-21T02:52:07.334Z,18.28
2022-08-21T02:53:07.290Z,18.30
2022-08-21T02:54:07.295Z,18.30
2022-08-21T02:55:07.265Z,18.30
2022-08-21T02:56:07.266Z,18.27
2022-08-21T02:57:07.247Z,18.26
2022-08-21T02:58:07.287Z,18.27
2022-08-21T02:59:07.230Z,18.27
2022-08-21T03:00:07.238Z,18.27
2022-08-21T03:01:07.187Z,18.36
2022-08-21T03:02:07.245Z,18.45
2022-08-21T03:03:07.230Z,18.49
2022-08-21T03:04:07.182Z,18.51
2022-08-21T03:05:07.190Z,18.57
2022-08-21T03:06:07.165Z,18.63
2022-08-21T03:07:07.141Z,18.49
2022-08-21T03:08:07.132Z,18.45
2022-08-21T03:09:07.137Z,18.38
2022-08-21T03:10:07.124Z,18.38
2022-08-21T03:11:07.082Z,18.36
2022-08-21T03:12:07.082Z,18.33
2022-08-21T03:13:07.073Z,18.28
2022-08-21T03:14:07.062Z,18.21
2022-08-21T03:15:07.058Z,18.23
2022-08-21T03:16:09.948Z,18.23
2022-08-21T03:17:07.038Z,18.20
2022-08-21T03:18:07.018Z,18.20
2022-08-21T03:19:06.994Z,18.18
2022-08-21T03:20:07.031Z,18.17
2022-08-21T03:21:06.972Z,18.13
2022-08-21T03:22:06.965Z,18.08
2022-08-21T03:23:12.534Z,18.06
2022-08-21T03:24:07.956Z,18.08
2022-08-21T03:25:06.976Z,18.05
2022-08-21T03:26:06.924Z,18.06
2022-08-21T03:27:09.468Z,18.05
2022-08-21T03:28:06.897Z,18.06
2022-08-21T03:29:06.887Z,18.13
2022-08-21T03:30:06.906Z,18.09
2022-08-21T03:31:06.878Z,18.08
2022-08-21T03:32:06.857Z,18.06
2022-08-21T03:33:06.858Z,18.08
2022-08-21T03:34:06.836Z,18.11
2022-08-21T03:35:06.823Z,18.08
2022-08-21T03:36:06.838Z,18.12
2022-08-21T03:37:06.807Z,18.15
2022-08-21T03:38:06.803Z,18.11
2022-08-21T03:39:06.790Z,18.09
2022-08-21T03:40:06.825Z,18.03
2022-08-21T03:41:06.757Z,18.01
2022-08-21T03:42:06.796Z,18.01
2022-08-21T03:43:06.720Z,18.01
2022-08-21T03:44:06.720Z,17.99
2022-08-21T03:45:06.734Z,17.99
2022-08-21T03:46:06.702Z,17.97
2022-08-21T03:47:06.692Z,18.02
2022-08-21T03:48:06.700Z,17.99
2022-08-21T03:49:06.661Z,17.97
2022-08-21T03:50:06.677Z,17.99
2022-08-21T03:51:06.672Z,17.99
2022-08-21T03:52:06.642Z,17.99
2022-08-21T03:53:06.624Z,17.99
2022-08-21T03:54:06.623Z,17.97
2022-08-21T03:55:06.603Z,17.96
2022-08-21T03:56:06.605Z,17.94
2022-08-21T03:57:06.607Z,17.96
2022-08-21T03:58:16.537Z,17.96
2022-08-21T03:59:07.574Z,17.97
2022-08-21T04:00:06.553Z,17.97
2022-08-21T04:01:06.514Z,18.01
2022-08-21T04:02:06.644Z,17.99
2022-08-21T04:03:06.532Z,18.02
2022-08-21T04:04:06.505Z,18.03
2022-08-21T04:05:06.497Z,18.06
2022-08-21T04:06:06.477Z,18.03
2022-08-21T04:07:06.477Z,18.05
2022-08-21T04:08:06.490Z,18.05
2022-08-21T04:09:06.457Z,18.08
2022-08-21T04:10:06.451Z,18.08
2022-08-21T04:11:06.446Z,18.08
2022-08-21T04:12:06.409Z,18.09
2022-08-21T04:13:06.415Z,18.09
2022-08-21T04:14:06.419Z,18.09
2022-08-21T04:15:06.390Z,18.08
2022-08-21T04:16:06.383Z,18.08
2022-08-21T04:17:06.357Z,18.08
2022-08-21T04:18:06.351Z,18.08
2022-08-21T04:19:06.355Z,18.09
2022-08-21T04:20:06.361Z,18.09
2022-08-21T04:21:06.342Z,18.09
2022-08-21T04:22:06.308Z,18.09
2022-08-21T04:23:06.302Z,18.09
2022-08-21T04:24:06.293Z,18.09
2022-08-21T04:25:06.272Z,18.08
2022-08-21T04:26:06.312Z,18.09
2022-08-21T04:27:06.241Z,18.11
2022-08-21T04:28:06.261Z,18.15
2022-08-21T04:29:06.247Z,18.11
2022-08-21T04:30:06.225Z,18.11
2022-08-21T04:31:06.202Z,18.09
2022-08-21T04:32:06.233Z,18.11
2022-08-21T04:33:06.190Z,18.09
2022-08-21T04:34:06.177Z,18.13
2022-08-21T04:35:06.159Z,18.13
2022-08-21T04:36:06.179Z,18.13
2022-08-21T04:37:06.145Z,18.15
2022-08-21T04:38:06.175Z,18.17
2022-08-21T04:39:06.136Z,18.18
2022-08-21T04:40:06.186Z,18.21
2022-08-21T04:41:06.108Z,18.21
2022-08-21T04:42:06.087Z,18.20
2022-08-21T04:43:06.079Z,18.23
2022-08-21T04:44:06.086Z,18.24
2022-08-21T04:45:06.078Z,18.26
2022-08-21T04:46:06.059Z,18.27
2022-08-21T04:47:06.031Z,18.26
2022-08-21T04:48:09.562Z,18.28
2022-08-21T04:49:07.080Z,18.28
2022-08-21T04:50:06.009Z,18.30
2022-08-21T04:51:06.007Z,18.28
2022-08-21T04:52:05.981Z,18.30
2022-08-21T04:53:05.975Z,18.33
2022-08-21T04:54:05.961Z,18.33
2022-08-21T04:55:05.990Z,18.33
2022-08-21T04:56:05.936Z,18.33
2022-08-21T04:57:05.922Z,18.33
2022-08-21T04:58:05.923Z,18.36
2022-08-21T04:59:05.933Z,18.34
2022-08-21T05:00:05.902Z,18.34
2022-08-21T05:01:05.924Z,18.36
2022-08-21T05:02:05.874Z,18.39
2022-08-21T05:03:05.865Z,18.42
2022-08-21T05:04:05.858Z,18.42
2022-08-21T05:05:05.871Z,18.45
2022-08-21T05:06:05.826Z,18.45
2022-08-21T05:07:05.835Z,18.48
2022-08-21T05:08:05.806Z,18.48
2022-08-21T05:09:05.816Z,18.51
2022-08-21T05:10:05.828Z,18.51
2022-08-21T05:11:05.792Z,18.51
2022-08-21T05:12:05.755Z,18.51
2022-08-21T05:13:05.755Z,18.52
2022-08-21T05:14:05.747Z,18.54
2022-08-21T05:15:05.767Z,18.49
2022-08-21T05:16:05.725Z,18.49
2022-08-21T05:17:05.724Z,18.51
2022-08-21T05:18:05.717Z,18.52
2022-08-21T05:19:05.697Z,18.52
2022-08-21T05:20:05.711Z,18.51
2022-08-21T05:21:05.671Z,18.54
2022-08-21T05:22:05.658Z,18.56
2022-08-21T05:23:05.637Z,18.57
2022-08-21T05:24:05.641Z,18.58
2022-08-21T05:25:06.577Z,18.57
2022-08-21T05:26:06.640Z,18.61
2022-08-21T05:27:06.609Z,18.63
2022-08-21T05:28:05.590Z,18.63
2022-08-21T05:29:08.546Z,18.63
2022-08-21T05:30:06.591Z,18.63
2022-08-21T05:31:05.572Z,18.64
2022-08-21T05:32:05.563Z,18.63
2022-08-21T05:33:05.553Z,18.64
2022-08-21T05:34:05.522Z,18.66
2022-08-21T05:35:05.535Z,18.67
2022-08-21T05:36:05.513Z,18.66
2022-08-21T05:37:07.680Z,18.66
2022-08-21T05:38:05.500Z,18.70
2022-08-21T05:39:05.475Z,18.66
2022-08-21T05:40:22.794Z,18.67
2022-08-21T05:41:06.501Z,18.70
2022-08-21T05:42:05.438Z,18.71
2022-08-21T05:43:05.434Z,18.70
2022-08-21T05:44:10.202Z,18.74
2022-08-21T05:45:06.406Z,18.75
2022-08-21T05:46:05.395Z,18.76
2022-08-21T05:47:05.377Z,18.76
2022-08-21T05:48:05.391Z,18.75
2022-08-21T05:49:05.370Z,18.75
2022-08-21T05:50:05.409Z,18.75
2022-08-21T05:51:05.335Z,18.71
2022-08-21T05:52:05.319Z,18.75
2022-08-21T05:53:07.519Z,18.75
2022-08-21T05:54:05.308Z,18.78
2022-08-21T05:55:05.295Z,18.82
2022-08-21T05:56:05.309Z,18.83
2022-08-21T05:57:05.280Z,18.86
2022-08-21T05:58:05.251Z,18.83
2022-08-21T05:59:08.559Z,18.85
2022-08-21T06:00:05.256Z,18.85
2022-08-21T06:01:05.294Z,18.85
2022-08-21T06:02:05.952Z,18.86
2022-08-21T06:03:05.217Z,18.86
2022-08-21T06:04:05.199Z,18.88
2022-08-21T06:05:05.194Z,18.91
2022-08-21T06:06:05.212Z,18.94
2022-08-21T06:07:05.160Z,18.97
2022-08-21T06:08:05.165Z,18.97
2022-08-21T06:09:05.204Z,19.00
2022-08-21T06:10:05.142Z,19.01
2022-08-21T06:11:05.152Z,19.04
2022-08-21T06:12:05.135Z,19.05
2022-08-21T06:13:05.115Z,19.05
2022-08-21T06:14:05.091Z,19.05
2022-08-21T06:15:05.292Z,19.08
2022-08-21T06:16:05.052Z,19.08
2022-08-21T06:17:05.081Z,19.08
2022-08-21T06:18:05.055Z,19.08
2022-08-21T06:19:05.048Z,19.08
2022-08-21T06:20:05.024Z,19.08
2022-08-21T06:21:05.052Z,19.08
2022-08-21T06:22:05.018Z,19.09
2022-08-21T06:23:05.029Z,19.07
2022-08-21T06:24:04.987Z,19.09
2022-08-21T06:25:04.986Z,19.15
2022-08-21T06:26:04.965Z,19.16
2022-08-21T06:27:04.964Z,19.16
2022-08-21T06:28:04.966Z,19.16
2022-08-21T06:29:04.938Z,19.16
2022-08-21T06:30:04.926Z,19.16
2022-08-21T06:31:04.954Z,19.19
2022-08-21T06:32:04.892Z,19.19
2022-08-21T06:33:04.906Z,19.20
2022-08-21T06:34:04.859Z,19.24
2022-08-21T06:35:04.871Z,19.26
2022-08-21T06:36:04.882Z,19.24
2022-08-21T06:37:04.848Z,19.24
2022-08-21T06:38:04.829Z,19.26
2022-08-21T06:39:16.276Z,19.30
2022-08-21T06:40:05.894Z,19.32
2022-08-21T06:41:05.873Z,19.32
2022-08-21T06:42:04.791Z,19.34
2022-08-21T06:43:05.782Z,19.35
2022-08-21T06:44:04.764Z,19.37
2022-08-21T06:45:04.763Z,19.39
2022-08-21T06:46:04.751Z,19.42
2022-08-21T06:47:04.783Z,19.44
2022-08-21T06:48:04.703Z,19.44
2022-08-21T06:49:04.751Z,19.44
2022-08-21T06:50:04.695Z,19.47
2022-08-21T06:51:04.711Z,19.45
2022-08-21T06:52:04.718Z,19.45
2022-08-21T06:53:04.674Z,19.49
2022-08-21T06:54:04.665Z,19.50
2022-08-21T06:55:04.643Z,19.47
2022-08-21T06:56:04.647Z,19.50
2022-08-21T06:57:04.627Z,19.50
2022-08-21T06:58:04.635Z,19.49
2022-08-21T06:59:04.607Z,19.52
2022-08-21T07:00:04.598Z,19.57
2022-08-21T07:01:04.611Z,19.57
2022-08-21T07:02:04.590Z,19.59
2022-08-21T07:03:04.557Z,19.60
2022-08-21T07:04:04.600Z,19.60
2022-08-21T07:05:09.018Z,19.62
2022-08-21T07:06:05.536Z,19.60
2022-08-21T07:07:04.511Z,19.62
2022-08-21T07:08:04.498Z,19.59
2022-08-21T07:09:04.536Z,19.60
2022-08-21T07:10:04.500Z,19.60
2022-08-21T07:11:04.506Z,19.60
2022-08-21T07:12:04.460Z,19.60
2022-08-21T07:13:04.808Z,19.62
2022-08-21T07:14:04.463Z,19.62
2022-08-21T07:15:04.441Z,19.60
2022-08-21T07:16:04.608Z,19.59
2022-08-21T07:17:04.412Z,19.59
2022-08-21T07:18:04.390Z,19.57
2022-08-21T07:19:04.392Z,19.54
2022-08-21T07:20:04.383Z,19.57
2022-08-21T07:21:04.382Z,19.56
2022-08-21T07:22:04.346Z,19.57
2022-08-21T07:23:04.397Z,19.59
2022-08-21T07:24:04.336Z,19.62
2022-08-21T07:25:04.294Z,19.60
2022-08-21T07:26:04.363Z,19.62
2022-08-21T07:27:08.229Z,19.63
2022-08-21T07:28:05.273Z,19.63
2022-08-21T07:29:04.281Z,19.67
2022-08-21T07:30:04.255Z,19.63
2022-08-21T07:31:04.260Z,19.67
2022-08-21T07:32:04.226Z,19.67
2022-08-21T07:33:04.245Z,19.64
2022-08-21T07:34:04.214Z,19.64
2022-08-21T07:35:04.224Z,19.64
2022-08-21T07:36:04.195Z,19.68
2022-08-21T07:37:06.320Z,19.68
2022-08-21T07:47:01.016Z,19.74
2022-08-21T07:48:01.062Z,19.77
2022-08-21T07:49:00.938Z,19.78
2022-08-21T07:50:00.935Z,19.81
2022-08-21T07:51:09.832Z,19.79
2022-08-21T08:30:19.894Z,19.87
2022-08-21T08:31:19.791Z,19.89
2022-08-21T08:32:19.758Z,19.93
2022-08-21T08:33:19.749Z,19.92
2022-08-21T08:34:25.118Z,19.90
2022-08-21T08:35:24.372Z,19.93
2022-08-21T08:36:19.832Z,19.92
2022-08-21T08:37:19.718Z,19.90
2022-08-21T08:38:19.710Z,19.92
2022-08-21T08:39:26.426Z,19.90
2022-08-21T08:40:20.791Z,19.92
2022-08-21T08:43:50.183Z,19.96
2022-08-21T08:44:50.169Z,19.99
2022-08-21T08:45:50.164Z,20.00
2022-08-21T08:46:50.140Z,20.02
2022-08-21T08:47:50.124Z,20.05
2022-08-21T08:48:53.190Z,20.08
2022-08-21T08:49:54.169Z,20.09
2022-08-21T08:57:10.907Z,20.17
2022-08-21T08:58:10.818Z,20.17
2022-08-21T08:59:10.815Z,20.17
2022-08-21T09:00:10.815Z,20.15
2022-08-21T09:01:10.813Z,20.14
2022-08-21T09:02:10.806Z,20.15
2022-08-21T09:03:10.769Z,20.18
2022-08-21T09:04:10.766Z,20.18
2022-08-21T09:05:10.736Z,20.23
2022-08-21T09:06:10.711Z,20.26
2022-08-21T09:07:10.732Z,20.25
2022-08-21T09:08:11.458Z,20.25
2022-08-21T09:09:10.683Z,20.25
2022-08-21T09:10:10.684Z,20.29
2022-08-21T09:11:10.677Z,20.29
2022-08-21T09:12:10.689Z,20.30
2022-08-21T09:13:10.650Z,20.33
2022-08-21T09:14:10.628Z,20.33
2022-08-21T09:15:10.629Z,20.33
2022-08-21T09:16:10.620Z,20.39
2022-08-21T09:17:10.597Z,20.39
2022-08-21T09:18:10.624Z,20.41
2022-08-21T09:19:10.618Z,20.39
2022-08-21T09:20:10.568Z,20.41
2022-08-21T09:21:10.562Z,20.41
2022-08-21T09:22:10.548Z,20.41
2022-08-21T09:23:10.550Z,20.39
2022-08-21T09:24:10.519Z,20.41
2022-08-21T09:25:10.531Z,20.44
2022-08-21T09:26:10.487Z,20.52
2022-08-21T09:27:10.522Z,20.53
2022-08-21T09:28:10.471Z,20.55
2022-08-21T09:29:10.513Z,20.58
2022-08-21T09:30:10.458Z,20.64
2022-08-21T09:31:10.454Z,20.65
2022-08-21T09:32:10.431Z,20.63
2022-08-21T09:33:10.433Z,20.68
2022-08-21T09:34:10.451Z,20.70
2022-08-21T09:35:10.420Z,20.71
2022-08-21T09:36:10.413Z,20.73
2022-08-21T09:37:10.383Z,20.70
2022-08-21T09:38:10.361Z,20.70
2022-08-21T09:39:10.356Z,20.70
2022-08-21T09:40:10.382Z,20.71
2022-08-21T09:41:10.361Z,20.73
2022-08-21T09:42:10.325Z,20.75
2022-08-21T09:43:10.314Z,20.80
2022-08-21T09:44:10.306Z,20.83
2022-08-21T09:45:10.312Z,20.85
2022-08-21T09:46:10.286Z,20.83
2022-08-21T09:47:10.274Z,20.85
2022-08-21T09:48:10.253Z,20.88
2022-08-21T09:49:13.403Z,20.90
2022-08-21T09:50:10.291Z,20.92
2022-08-21T09:51:10.241Z,20.92
2022-08-21T09:52:10.206Z,20.90
2022-08-21T09:53:10.207Z,20.93
2022-08-21T09:54:10.183Z,20.93
2022-08-21T09:55:10.207Z,20.92
2022-08-21T09:56:11.166Z,20.92
2022-08-21T09:57:10.158Z,20.97
2022-08-21T09:58:10.137Z,21.00
2022-08-21T09:59:10.159Z,21.07
2022-08-21T10:00:10.258Z,21.07
2022-08-21T10:01:10.162Z,21.11
2022-08-21T10:02:10.108Z,21.14
2022-08-21T10:03:10.098Z,21.14
2022-08-21T10:04:10.088Z,21.16
2022-08-21T10:05:10.207Z,21.13
2022-08-21T10:06:10.069Z,21.19
2022-08-21T10:07:10.064Z,21.19
2022-08-21T10:08:10.051Z,21.22
2022-08-21T10:09:13.658Z,21.28
2022-08-21T10:10:11.069Z,21.30
2022-08-21T10:11:10.041Z,21.30
2022-08-21T10:12:10.999Z,21.30
2022-08-21T10:13:10.034Z,21.30
2022-08-21T10:14:09.993Z,21.30
2022-08-21T10:15:09.970Z,21.29
2022-08-21T10:16:09.967Z,21.26
2022-08-21T10:17:09.947Z,21.26
2022-08-21T10:18:09.983Z,21.30
2022-08-21T10:19:09.929Z,21.34
2022-08-21T10:20:09.935Z,21.40
2022-08-21T10:21:11.963Z,21.41
2022-08-21T10:22:09.883Z,21.44
2022-08-21T10:23:09.887Z,21.44
2022-08-21T10:24:09.878Z,21.44
2022-08-21T10:25:09.898Z,21.48
2022-08-21T10:26:13.149Z,21.48
2022-08-21T10:27:09.854Z,21.51
2022-08-21T10:28:13.517Z,21.50
2022-08-21T10:29:09.826Z,21.56
2022-08-21T10:30:09.851Z,21.55
2022-08-21T10:31:09.812Z,21.58
2022-08-21T10:32:17.312Z,21.60
2022-08-21T10:33:10.791Z,21.58
2022-08-21T10:34:09.767Z,21.59
2022-08-21T10:35:09.842Z,21.60
2022-08-21T10:36:09.737Z,21.62
2022-08-21T10:37:10.914Z,21.65
2022-08-21T10:38:09.727Z,21.69
2022-08-21T10:39:26.483Z,21.74
2022-08-21T10:40:10.761Z,21.78
2022-08-21T10:41:09.701Z,21.81
2022-08-21T10:42:09.711Z,21.84
2022-08-21T10:43:09.703Z,21.85
2022-08-21T10:44:09.651Z,21.84
2022-08-21T10:45:09.665Z,21.85
2022-08-21T10:46:09.640Z,21.85
2022-08-21T10:47:09.625Z,21.84
2022-08-21T10:48:09.611Z,21.82
2022-08-21T10:49:09.725Z,21.84
2022-08-21T10:50:09.592Z,21.88
2022-08-21T10:51:09.604Z,21.85
2022-08-21T10:52:09.593Z,21.91
2022-08-21T10:53:09.606Z,21.94
2022-08-21T10:54:09.573Z,22.00
2022-08-21T10:55:09.541Z,22.04
2022-08-21T10:56:09.545Z,22.11
2022-08-21T10:57:09.525Z,22.13
2022-08-21T10:58:09.538Z,22.18
2022-08-21T10:59:09.517Z,22.15
2022-08-21T11:00:09.488Z,22.13
2022-08-21T11:01:09.546Z,22.13
2022-08-21T11:02:09.490Z,22.15
2022-08-21T11:03:09.477Z,22.22
2022-08-21T11:04:09.476Z,22.19
2022-08-21T11:05:09.448Z,22.25
2022-08-21T11:06:09.424Z,22.25
2022-08-21T11:07:09.420Z,22.28
2022-08-21T11:08:10.401Z,22.30
2022-08-21T11:09:09.446Z,22.25
2022-08-21T11:10:09.398Z,22.25
2022-08-21T11:11:09.381Z,22.27
2022-08-21T11:12:12.270Z,22.30
2022-08-21T11:13:09.348Z,22.33
2022-08-21T11:14:09.354Z,22.36
2022-08-21T11:15:16.514Z,22.38
2022-08-21T11:16:10.310Z,22.41
2022-08-21T11:17:09.300Z,22.43
2022-08-21T11:18:09.292Z,22.46
2022-08-21T11:19:09.310Z,22.44
2022-08-21T11:20:09.272Z,22.48
2022-08-21T11:21:09.265Z,22.52
2022-08-21T11:22:09.263Z,22.56
2022-08-21T11:23:09.609Z,22.53
2022-08-21T11:24:09.259Z,22.56
2022-08-21T11:25:09.246Z,22.53
2022-08-21T11:26:09.217Z,22.53
2022-08-21T11:27:09.205Z,22.52
2022-08-21T11:28:13.708Z,22.52
2022-08-21T11:29:10.194Z,22.48
2022-08-21T11:30:09.221Z,22.53
2022-08-21T11:31:09.144Z,22.56
2022-08-21T11:32:09.134Z,22.62
2022-08-21T11:33:09.134Z,22.64
2022-08-21T11:34:09.128Z,22.67
2022-08-21T11:35:09.142Z,22.67
2022-08-21T11:36:09.106Z,22.76
2022-08-21T11:37:09.093Z,22.80
2022-08-21T11:38:09.087Z,22.85
2022-08-21T11:39:09.083Z,22.85
2022-08-21T11:40:09.189Z,22.88
2022-08-21T11:41:09.062Z,22.85
2022-08-21T11:42:09.366Z,22.88
2022-08-21T11:43:09.042Z,22.81
2022-08-21T11:44:09.028Z,22.77
2022-08-21T11:45:09.042Z,22.77
2022-08-21T11:46:09.031Z,22.80
2022-08-21T11:47:09.003Z,22.78
2022-08-21T11:48:08.979Z,22.80
2022-08-21T11:49:08.970Z,22.81
2022-08-21T11:50:18.135Z,22.81
2022-08-21T11:51:10.047Z,22.81
2022-08-21T11:52:08.942Z,22.83
2022-08-21T11:53:08.935Z,22.89
2022-08-21T11:54:08.913Z,22.96
2022-08-21T11:55:08.911Z,22.99
2022-08-21T11:56:08.928Z,23.01
2022-08-21T11:57:08.883Z,23.01
2022-08-21T11:58:08.879Z,22.98
2022-08-21T11:59:08.864Z,22.99
2022-08-21T12:00:08.930Z,22.99
2022-08-21T12:01:08.845Z,23.04
2022-08-21T12:02:08.894Z,23.03
2022-08-21T12:03:08.826Z,23.07
2022-08-21T12:04:08.804Z,23.07
2022-08-21T12:05:09.366Z,23.13
2022-08-21T12:06:08.776Z,23.17
2022-08-21T12:07:08.787Z,23.23
2022-08-21T12:08:08.756Z,23.26
2022-08-21T12:09:08.746Z,23.29
2022-08-21T12:10:08.765Z,23.29
2022-08-21T12:11:08.735Z,23.33
2022-08-21T12:12:08.725Z,23.37
2022-08-21T12:13:08.736Z,23.37
2022-08-21T12:14:08.697Z,23.39
2022-08-21T12:15:08.696Z,23.39
2022-08-21T12:16:08.736Z,23.41
2022-08-21T12:17:08.808Z,23.41
2022-08-21T12:18:08.678Z,23.39
2022-08-21T12:19:08.654Z,23.39
2022-08-21T12:20:08.668Z,23.42
2022-08-21T12:21:08.631Z,23.31
2022-08-21T12:22:08.630Z,23.26
2022-08-21T12:23:12.620Z,23.25
2022-08-21T12:24:08.592Z,23.28
2022-08-21T12:25:08.581Z,23.36
2022-08-21T12:26:08.601Z,23.36
2022-08-21T12:27:08.561Z,23.48
2022-08-21T12:28:08.556Z,23.55
2022-08-21T12:29:08.583Z,23.56
2022-08-21T12:30:08.533Z,23.55
2022-08-21T12:31:08.514Z,23.54
2022-08-21T12:32:08.545Z,23.60
2022-08-21T12:33:08.508Z,23.61
2022-08-21T12:34:08.495Z,23.60
2022-08-21T12:35:08.493Z,23.63
2022-08-21T12:36:09.489Z,23.64
2022-08-21T12:37:08.482Z,23.67
2022-08-21T12:38:08.457Z,23.67
2022-08-21T12:39:08.449Z,23.64
2022-08-21T12:40:08.524Z,23.61
2022-08-21T12:41:08.459Z,23.61
2022-08-21T12:42:08.452Z,23.63
2022-08-21T12:43:08.407Z,23.64
2022-08-21T12:44:08.388Z,23.66
2022-08-21T12:45:08.377Z,23.63
2022-08-21T12:46:08.372Z,23.60
2022-08-21T12:47:08.377Z,23.59
2022-08-21T12:48:08.360Z,23.56
2022-08-21T12:49:08.342Z,23.54
2022-08-21T12:50:08.349Z,23.54
2022-08-21T12:51:08.310Z,23.48
2022-08-21T12:52:08.300Z,23.51
2022-08-21T12:53:20.231Z,23.54
2022-08-21T12:54:09.280Z,23.52
2022-08-21T12:55:08.262Z,23.56
2022-08-21T12:56:08.251Z,23.61
2022-08-21T12:57:08.245Z,23.64
2022-08-21T12:58:08.260Z,23.63
2022-08-21T12:59:08.240Z,23.64
2022-08-21T13:00:08.233Z,23.63
2022-08-21T13:01:08.217Z,23.64
2022-08-21T13:02:08.283Z,23.61
2022-08-21T13:03:08.203Z,23.63
2022-08-21T13:04:08.171Z,23.66
2022-08-21T13:05:08.161Z,23.66
2022-08-21T13:06:08.144Z,23.64
2022-08-21T13:07:08.137Z,23.66
2022-08-21T13:08:08.154Z,23.67
2022-08-21T13:09:08.134Z,23.66
2022-08-21T13:10:08.095Z,23.60
2022-08-21T13:11:09.031Z,23.59
2022-08-21T13:12:09.085Z,23.59
2022-08-21T13:13:12.903Z,23.61
2022-08-21T13:14:09.056Z,23.56
2022-08-21T13:15:08.946Z,23.48
2022-08-21T13:16:08.058Z,23.45
2022-08-21T13:17:08.025Z,23.39
2022-08-21T13:18:08.046Z,23.42
2022-08-21T13:19:08.021Z,23.42
2022-08-21T13:20:08.007Z,23.39
2022-08-21T13:21:08.015Z,23.37
2022-08-21T13:22:35.017Z,23.39
2022-08-21T13:23:09.005Z,23.41
2022-08-21T13:24:25.724Z,23.34
2022-08-21T13:25:08.965Z,23.34
2022-08-21T13:26:07.930Z,23.34
2022-08-21T13:27:07.929Z,23.36
2022-08-21T13:28:07.950Z,23.39
2022-08-21T13:29:07.910Z,23.41
2022-08-21T13:30:07.904Z,23.42
2022-08-21T13:31:07.902Z,23.42
2022-08-21T13:32:07.873Z,23.37
2022-08-21T13:33:12.915Z,23.36
2022-08-21T13:34:08.863Z,23.37
2022-08-21T13:35:07.842Z,23.34
2022-08-21T13:36:07.838Z,23.37
2022-08-21T13:37:07.844Z,23.41
2022-08-21T13:38:07.853Z,23.42
2022-08-21T13:39:07.842Z,23.41
2022-08-21T13:40:07.842Z,23.37
2022-08-21T13:41:07.783Z,23.39
2022-08-21T13:42:07.778Z,23.44
2022-08-21T13:43:07.806Z,23.49
2022-08-21T13:44:07.746Z,23.48
2022-08-21T13:45:07.755Z,23.51
2022-08-21T13:46:07.726Z,23.59
2022-08-21T13:47:07.724Z,23.66
2022-08-21T13:48:07.709Z,23.71